Time;durP1;ratioP1;P1;durP2;ratioP2;P2;SDS_P1;SDS_P2;PMS_P1;PMS_P2;Temp;Humidity;BMP_temperature;BMP_pressure;BME280_temperature;BME280_humidity;BME280_pressure;Samples;Min_cycle;Max_cycle;Signal;HPM_P1;HPM_P2
2023/08/09 00:01:35;;;;;;;1999.90;999.90;;;14.10;99.90;;;;;;4982414;28;20492;-66
2023/08/09 00:04:01;;;;;;;1999.90;999.90;;;14.10;99.90;;;;;;4982321;28;20442;-65
2023/08/09 00:06:28;;;;;;;1999.90;999.90;;;14.00;99.90;;;;;;4981424;28;20438;-66
2023/08/09 00:08:55;;;;;;;1999.90;999.90;;;14.00;99.90;;;;;;4980662;28;20511;-66
2023/08/09 00:11:22;;;;;;;1999.90;999.90;;;14.00;99.90;;;;;;4981537;28;20439;-66
2023/08/09 00:13:50;;;;;;;1999.90;999.90;;;14.10;99.90;;;;;;4987457;28;20438;-66
2023/08/09 00:16:17;;;;;;;1999.90;999.90;;;14.10;99.90;;;;;;4983734;28;20436;-66
2023/08/09 00:18:44;;;;;;;1999.90;999.90;;;14.00;99.90;;;;;;4988403;28;20474;-65
2023/08/09 00:21:10;;;;;;;1999.90;999.90;;;14.10;99.90;;;;;;4982992;28;20434;-65
2023/08/09 00:23:37;;;;;;;1999.90;999.90;;;14.10;99.90;;;;;;4987617;28;20859;-66
2023/08/09 00:26:04;;;;;;;1999.90;999.90;;;14.10;99.90;;;;;;4980130;28;20440;-66
2023/08/09 00:28:30;;;;;;;1999.90;999.90;;;14.20;99.90;;;;;;4975576;28;20919;-66
2023/08/09 00:30:59;;;;;;;1999.90;999.90;;;14.40;99.90;;;;;;4981936;28;20556;-66
2023/08/09 00:33:25;;;;;;;1999.90;999.90;;;14.40;99.90;;;;;;4985849;28;20439;-66
2023/08/09 00:35:52;;;;;;;1999.90;999.90;;;14.40;99.90;;;;;;4979752;28;20444;-66
2023/08/09 00:38:19;;;;;;;1999.90;999.90;;;14.40;99.90;;;;;;4978658;28;20439;-66
2023/08/09 00:40:45;;;;;;;1999.90;999.90;;;14.30;99.90;;;;;;5000022;23;20443;-71
2023/08/09 00:43:12;;;;;;;1999.90;999.90;;;14.30;99.90;;;;;;4980713;28;20804;-72
2023/08/09 00:45:42;;;;;;;1999.90;999.90;;;14.40;99.90;;;;;;4986320;28;20930;-74
2023/08/09 00:48:10;;;;;;;1999.90;999.90;;;14.40;99.90;;;;;;4982929;28;20434;-72
2023/08/09 00:50:38;;;;;;;1999.90;999.90;;;14.40;99.90;;;;;;4986935;28;20445;-71
2023/08/09 00:53:05;;;;;;;1999.90;999.90;;;14.40;99.90;;;;;;4974304;28;20463;-72
2023/08/09 00:55:32;;;;;;;1999.90;999.90;;;14.30;99.90;;;;;;4954869;28;20516;-72
2023/08/09 00:57:58;;;;;;;1999.90;999.90;;;14.30;99.90;;;;;;4978802;28;20444;-72
2023/08/09 01:00:25;;;;;;;1999.90;999.90;;;14.20;99.90;;;;;;4959315;28;20795;-71
2023/08/09 01:02:52;;;;;;;1999.90;999.90;;;14.10;99.90;;;;;;4969954;28;20463;-73
2023/08/09 01:05:21;;;;;;;1999.90;999.90;;;14.10;99.90;;;;;;4970023;28;20432;-72
2023/08/09 01:07:56;;;;;;;1999.90;999.90;;;14.10;99.90;;;;;;4984194;28;20444;-72
2023/08/09 01:10:29;;;;;;;1999.90;999.90;;;14.00;99.90;;;;;;4984197;28;20441;-73
2023/08/09 01:12:59;;;;;;;1999.90;999.90;;;14.00;99.90;;;;;;4971101;28;20443;-71
2023/08/09 01:15:26;;;;;;;1999.90;999.90;;;14.00;99.90;;;;;;4957023;28;20784;-72
2023/08/09 01:17:55;;;;;;;1999.90;999.90;;;14.00;99.90;;;;;;4964850;28;20807;-71
2023/08/09 01:20:24;;;;;;;1999.90;999.90;;;14.10;99.90;;;;;;4976226;28;20434;-74
2023/08/09 01:22:59;;;;;;;1999.90;999.90;;;14.20;99.90;;;;;;4976193;28;20518;-72
2023/08/09 01:25:27;;;;;;;1999.90;999.90;;;14.10;99.90;;;;;;4966508;28;20444;-72
2023/08/09 01:27:54;;;;;;;1999.90;999.90;;;14.20;99.90;;;;;;4970265;28;20436;-71
2023/08/09 01:30:21;;;;;;;1999.90;999.90;;;14.20;99.90;;;;;;4973422;28;20439;-71
2023/08/09 01:32:48;;;;;;;1999.90;999.90;;;14.20;99.90;;;;;;4972995;28;20463;-71
2023/08/09 01:35:15;;;;;;;1999.90;999.90;;;14.10;99.90;;;;;;4966067;28;20435;-71
2023/08/09 01:37:47;;;;;;;1999.90;999.90;;;14.00;99.90;;;;;;4966774;28;20467;-72
2023/08/09 01:40:17;;;;;;;1999.90;999.90;;;14.00;99.90;;;;;;4965933;28;20445;-73
2023/08/09 01:42:46;;;;;;;1999.90;999.90;;;14.10;99.90;;;;;;4969706;28;20429;-72
2023/08/09 01:45:14;;;;;;;1999.90;999.90;;;14.20;99.90;;;;;;4962574;28;20431;-72
2023/08/09 01:47:42;;;;;;;1999.90;999.90;;;14.30;99.90;;;;;;4963655;28;20437;-72
2023/08/09 01:50:19;;;;;;;1999.90;999.90;;;14.20;99.90;;;;;;4979430;28;20441;-70
2023/08/09 01:52:45;;;;;;;1999.90;999.90;;;14.40;99.90;;;;;;4979114;28;20492;-72
2023/08/09 01:55:15;;;;;;;1999.90;999.90;;;14.40;99.90;;;;;;4973377;28;20529;-70
2023/08/09 01:57:42;;;;;;;1999.90;999.90;;;14.40;99.90;;;;;;4964947;28;20447;-70
2023/08/09 02:00:15;;;;;;;1999.90;999.90;;;14.40;99.90;;;;;;4974080;28;20433;-69
2023/08/09 02:02:42;;;;;;;1999.90;999.90;;;14.40;99.90;;;;;;4978026;28;20440;-70
2023/08/09 02:05:09;;;;;;;1999.90;999.90;;;14.40;99.90;;;;;;4976277;28;20432;-70
2023/08/09 02:07:36;;;;;;;1999.90;999.90;;;14.30;99.90;;;;;;4971844;28;20951;-75
2023/08/09 02:10:03;;;;;;;1999.90;999.90;;;14.40;99.90;;;;;;4974644;28;20445;-70
2023/08/09 02:12:30;;;;;;;1999.90;999.90;;;14.10;99.90;;;;;;4965410;28;20500;-70
2023/08/09 02:14:56;;;;;;;1999.90;999.90;;;14.10;99.90;;;;;;4970865;28;20440;-70
2023/08/09 02:17:24;;;;;;;1999.90;999.90;;;14.10;99.90;;;;;;4967248;28;20517;-69
2023/08/09 02:19:53;;;;;;;1999.90;999.90;;;14.20;99.90;;;;;;4987275;28;20948;-70
2023/08/09 02:22:20;;;;;;;1999.90;999.90;;;14.20;99.90;;;;;;4968735;28;20517;-72
2023/08/09 02:24:47;;;;;;;1999.90;999.90;;;14.20;99.90;;;;;;4978843;28;20435;-69
2023/08/09 02:27:14;;;;;;;1999.90;999.90;;;14.40;99.90;;;;;;4972793;28;20449;-70
2023/08/09 02:29:40;;;;;;;1999.90;999.90;;;14.20;99.90;;;;;;4981122;28;20441;-72
2023/08/09 02:32:07;;;;;;;1999.90;999.90;;;14.00;99.90;;;;;;4968587;28;20444;-70
2023/08/09 02:34:36;;;;;;;1999.90;999.90;;;13.80;99.90;;;;;;4978476;28;20478;-70
2023/08/09 02:37:04;;;;;;;1999.90;999.90;;;13.70;99.90;;;;;;4964603;28;20938;-73
2023/08/09 02:39:31;;;;;;;1999.90;999.90;;;13.70;99.90;;;;;;4972723;28;20923;-70
2023/08/09 02:41:59;;;;;;;1999.90;999.90;;;13.70;99.90;;;;;;4978443;28;20436;-70
2023/08/09 02:44:25;;;;;;;1999.90;999.90;;;13.70;99.90;;;;;;4968756;28;20514;-72
2023/08/09 02:46:52;;;;;;;1999.90;999.90;;;13.60;99.90;;;;;;4973533;28;20443;-68
2023/08/09 02:49:19;;;;;;;1999.90;999.90;;;13.60;99.90;;;;;;4983698;28;20441;-70
2023/08/09 02:51:47;;;;;;;1999.90;999.90;;;13.60;99.90;;;;;;4975607;28;20452;-70
2023/08/09 02:54:13;;;;;;;1999.90;999.90;;;13.60;99.90;;;;;;4971583;28;20430;-70
2023/08/09 02:56:40;;;;;;;1999.90;999.90;;;13.60;99.90;;;;;;4970413;28;20437;-72
2023/08/09 02:59:07;;;;;;;1999.90;999.90;;;13.70;99.90;;;;;;4978168;28;20445;-70
2023/08/09 03:01:33;;;;;;;1999.90;999.90;;;13.50;99.90;;;;;;4981076;28;20541;-71
2023/08/09 03:04:00;;;;;;;1999.90;999.90;;;13.40;99.90;;;;;;4979801;28;20529;-73
2023/08/09 03:06:27;;;;;;;1999.90;999.90;;;13.30;99.90;;;;;;4968028;28;20442;-71
2023/08/09 03:08:55;;;;;;;1999.90;999.90;;;13.20;99.90;;;;;;4966530;28;20933;-70
2023/08/09 03:11:23;;;;;;;1999.90;999.90;;;13.20;99.90;;;;;;4973671;28;20434;-70
2023/08/09 03:13:50;;;;;;;1999.90;999.90;;;13.30;99.90;;;;;;4965669;28;20934;-70
2023/08/09 03:16:17;;;;;;;1999.90;999.90;;;13.10;99.90;;;;;;4973460;28;20789;-72
2023/08/09 03:18:44;;;;;;;1999.90;999.90;;;13.10;99.90;;;;;;4972284;28;20928;-70
2023/08/09 03:21:11;;;;;;;1999.90;999.90;;;13.00;99.90;;;;;;4980512;28;20445;-70
2023/08/09 03:23:37;;;;;;;1999.90;999.90;;;12.90;99.90;;;;;;4966335;28;20932;-72
2023/08/09 03:26:06;;;;;;;1999.90;999.90;;;12.90;99.90;;;;;;4973257;28;20443;-70
2023/08/09 03:28:33;;;;;;;1999.90;999.90;;;12.90;99.90;;;;;;4969800;28;20436;-70
2023/08/09 03:31:00;;;;;;;1999.90;999.90;;;13.00;99.90;;;;;;4968965;28;20996;-72
2023/08/09 03:33:27;;;;;;;1999.90;999.90;;;13.10;99.90;;;;;;4978896;28;20439;-70
2023/08/09 03:35:55;;;;;;;1999.90;999.90;;;13.00;99.90;;;;;;4973354;28;21326;-71
2023/08/09 03:38:22;;;;;;;1999.90;999.90;;;13.00;99.90;;;;;;4962178;28;20521;-69
2023/08/09 03:40:48;;;;;;;1999.90;999.90;;;12.90;99.90;;;;;;4969553;28;20451;-74
2023/08/09 03:43:16;;;;;;;1999.90;999.90;;;12.90;99.90;;;;;;4977038;28;20493;-71
2023/08/09 03:45:43;;;;;;;1999.90;999.90;;;12.80;99.90;;;;;;4984732;28;20431;-71
2023/08/09 03:48:10;;;;;;;1999.90;999.90;;;12.60;99.90;;;;;;4973833;28;20455;-71
2023/08/09 03:50:36;;;;;;;1999.90;999.90;;;12.60;99.90;;;;;;4960436;28;20440;-71
2023/08/09 03:53:03;;;;;;;1999.90;999.90;;;12.60;99.90;;;;;;4973672;28;20934;-71
2023/08/09 03:55:30;;;;;;;1999.90;999.90;;;12.60;99.90;;;;;;4981923;28;20460;-71
2023/08/09 03:57:57;;;;;;;1999.90;999.90;;;12.40;99.90;;;;;;4974360;28;20508;-73
2023/08/09 04:00:26;;;;;;;1999.90;999.90;;;12.40;99.90;;;;;;4969493;28;20789;-70
2023/08/09 04:02:53;;;;;;;1999.90;999.90;;;12.40;99.90;;;;;;4962960;28;20464;-70
2023/08/09 04:05:19;;;;;;;1999.90;999.90;;;12.40;99.90;;;;;;4968293;28;20792;-72
2023/08/09 04:07:46;;;;;;;1999.90;999.90;;;12.50;99.90;;;;;;4958071;28;20433;-71
2023/08/09 04:10:13;;;;;;;1999.90;999.90;;;12.50;99.90;;;;;;4970562;28;20463;-71
2023/08/09 04:12:40;;;;;;;1999.90;999.90;;;12.40;99.90;;;;;;4967068;28;20949;-73
2023/08/09 04:15:08;;;;;;;1999.90;999.90;;;12.30;99.90;;;;;;4987761;28;21041;-71
2023/08/09 04:17:36;;;;;;;1999.90;999.90;;;12.40;99.90;;;;;;4970439;28;20526;-72
2023/08/09 04:20:03;;;;;;;1999.90;999.90;;;12.40;99.90;;;;;;4965285;28;20838;-71
2023/08/09 04:22:30;;;;;;;1999.90;999.90;;;12.30;99.90;;;;;;4969177;28;20554;-70
2023/08/09 04:24:57;;;;;;;1999.90;999.90;;;12.30;99.90;;;;;;4979890;28;20810;-70
2023/08/09 04:27:23;;;;;;;1999.90;999.90;;;12.20;99.90;;;;;;4978820;28;20506;-70
2023/08/09 04:29:51;;;;;;;1999.90;999.90;;;12.20;99.90;;;;;;4956871;28;20441;-68
2023/08/09 04:32:17;;;;;;;1999.90;999.90;;;12.20;99.90;;;;;;4971415;28;20443;-69
2023/08/09 04:34:45;;;;;;;1999.90;999.90;;;12.30;99.90;;;;;;4968418;28;20435;-70
2023/08/09 04:37:12;;;;;;;1999.90;999.90;;;12.30;99.90;;;;;;4982063;28;20594;-75
2023/08/09 04:39:39;;;;;;;1999.90;999.90;;;12.50;99.90;;;;;;4967034;28;20435;-70
2023/08/09 04:42:05;;;;;;;1999.90;999.90;;;12.60;99.90;;;;;;4972614;28;20432;-72
2023/08/09 04:44:32;;;;;;;1999.90;999.90;;;12.80;99.90;;;;;;4972806;28;20443;-69
2023/08/09 04:46:59;;;;;;;1999.90;999.90;;;13.10;99.90;;;;;;4975681;28;20483;-70
2023/08/09 04:49:26;;;;;;;1999.90;999.90;;;13.50;99.90;;;;;;4964741;28;20443;-71
2023/08/09 04:51:55;;;;;;;1999.90;999.90;;;13.90;99.90;;;;;;4968095;28;20464;-70
2023/08/09 04:54:21;;;;;;;1999.90;999.90;;;13.90;99.90;;;;;;4974202;28;20473;-70
2023/08/09 04:56:48;;;;;;;1999.90;999.90;;;14.00;99.90;;;;;;4981576;28;20882;-71
2023/08/09 04:59:15;;;;;;;1999.90;999.90;;;14.00;99.90;;;;;;4960402;28;20441;-70
2023/08/09 05:01:42;;;;;;;1999.90;999.90;;;14.30;99.90;;;;;;4971246;28;20439;-70
2023/08/09 05:04:09;;;;;;;1999.90;999.90;;;14.50;99.90;;;;;;4975099;28;20429;-70
2023/08/09 05:06:36;;;;;;;1999.90;999.90;;;14.60;99.90;;;;;;4974959;28;20494;-70
2023/08/09 05:09:04;;;;;;;1999.90;999.90;;;15.00;99.90;;;;;;4976031;28;20465;-70
2023/08/09 05:11:31;;;;;;;1999.90;999.90;;;15.10;99.90;;;;;;4966363;28;20920;-70
2023/08/09 05:13:57;;;;;;;1999.90;999.90;;;15.50;99.90;;;;;;4967280;28;20454;-75
2023/08/09 05:16:25;;;;;;;1999.90;999.90;;;15.60;99.90;;;;;;4972490;28;20434;-73
2023/08/09 05:18:52;;;;;;;1999.90;999.90;;;15.50;99.90;;;;;;4963410;28;20435;-70
2023/08/09 05:21:19;;;;;;;1999.90;999.90;;;15.60;99.90;;;;;;4968963;28;20440;-70
2023/08/09 05:23:46;;;;;;;1999.90;999.90;;;15.30;99.90;;;;;;4972493;28;20452;-70
2023/08/09 05:26:14;;;;;;;1999.90;999.90;;;15.20;99.90;;;;;;4956575;28;22353;-72
2023/08/09 05:28:41;;;;;;;1999.90;999.90;;;15.00;99.90;;;;;;4959112;28;20436;-69
2023/08/09 05:31:07;;;;;;;1999.90;999.90;;;14.90;99.90;;;;;;4963614;28;20444;-68
2023/08/09 05:33:34;;;;;;;1999.90;999.90;;;14.90;99.90;;;;;;4979991;28;20976;-72
2023/08/09 05:36:01;;;;;;;1999.90;999.90;;;14.70;99.90;;;;;;4967657;28;20441;-70
2023/08/09 05:38:27;;;;;;;1999.90;999.90;;;14.60;99.90;;;;;;4977015;28;20455;-67
2023/08/09 05:40:55;;;;;;;1999.90;999.90;;;14.60;99.90;;;;;;4964600;28;20444;-70
2023/08/09 05:43:23;;;;;;;1999.90;999.90;;;14.70;99.90;;;;;;4975294;28;20477;-70
2023/08/09 05:45:50;;;;;;;1999.90;999.90;;;14.70;99.90;;;;;;4967428;28;20443;-70
2023/08/09 05:48:17;;;;;;;1999.90;999.90;;;14.80;99.90;;;;;;4985186;28;20447;-70
2023/08/09 05:50:43;;;;;;;1999.90;999.90;;;14.90;99.90;;;;;;4960549;28;20962;-71
2023/08/09 05:53:10;;;;;;;1999.90;999.90;;;15.10;99.90;;;;;;4973137;28;20467;-70
2023/08/09 05:55:39;;;;;;;1999.90;999.90;;;15.10;99.90;;;;;;4961229;28;20436;-69
2023/08/09 05:58:06;;;;;;;1999.90;999.90;;;15.30;99.90;;;;;;4958701;28;20445;-70
2023/08/09 06:00:35;;;;;;;1999.90;999.90;;;15.50;99.90;;;;;;4968885;28;20477;-70
2023/08/09 06:03:04;;;;;;;1999.90;999.90;;;15.80;99.90;;;;;;4971146;28;20527;-69
2023/08/09 06:05:31;;;;;;;1999.90;999.90;;;16.10;99.90;;;;;;4967413;28;20447;-70
2023/08/09 06:07:58;;;;;;;1999.90;999.90;;;16.00;99.90;;;;;;4972218;28;20440;-69
2023/08/09 06:10:26;;;;;;;1999.90;999.90;;;15.70;99.90;;;;;;4980905;28;20815;-70
2023/08/09 06:12:53;;;;;;;1999.90;999.90;;;15.80;99.90;;;;;;4985089;28;20465;-72
2023/08/09 06:15:21;;;;;;;1999.90;999.90;;;16.10;99.90;;;;;;4965616;28;20436;-70
2023/08/09 06:17:49;;;;;;;1999.90;999.90;;;16.40;99.90;;;;;;4965675;28;20808;-70
2023/08/09 06:20:17;;;;;;;1999.90;999.90;;;16.50;99.90;;;;;;4971543;28;20569;-69
2023/08/09 06:22:44;;;;;;;1999.90;999.90;;;16.60;99.90;;;;;;4979373;28;20484;-71
2023/08/09 06:25:11;;;;;;;1999.90;999.90;;;16.80;99.90;;;;;;4969865;28;20437;-68
2023/08/09 06:27:37;;;;;;;1999.90;999.90;;;16.90;99.90;;;;;;4970018;28;20439;-71
2023/08/09 06:30:06;;;;;;;1999.90;999.90;;;17.00;99.90;;;;;;4970576;28;20440;-71
2023/08/09 06:32:33;;;;;;;1999.90;999.90;;;17.40;99.90;;;;;;4969583;28;20441;-70
2023/08/09 06:35:01;;;;;;;1999.90;999.90;;;17.40;99.90;;;;;;4974007;28;20519;-70
2023/08/09 06:37:28;;;;;;;1999.90;999.90;;;17.30;99.90;;;;;;4970628;28;20928;-71
2023/08/09 06:39:55;;;;;;;1999.90;999.90;;;17.20;99.90;;;;;;4963127;28;20435;-70
2023/08/09 06:42:21;;;;;;;1999.90;999.90;;;17.00;99.90;;;;;;4976586;28;20468;-70
2023/08/09 06:44:48;;;;;;;1999.90;999.90;;;17.00;99.90;;;;;;4973334;28;20434;-71
2023/08/09 06:47:15;;;;;;;1999.90;999.90;;;17.00;99.90;;;;;;4966473;28;20433;-71
2023/08/09 06:49:41;;;;;;;1999.90;999.90;;;16.80;99.90;;;;;;4973214;28;20427;-71
2023/08/09 06:52:09;;;;;;;1999.90;999.90;;;16.80;99.90;;;;;;4974436;28;20415;-72
2023/08/09 06:54:36;;;;;;;1999.90;999.90;;;17.00;99.90;;;;;;4974320;28;20824;-70
2023/08/09 06:57:03;;;;;;;1999.90;999.90;;;17.10;99.90;;;;;;4966469;28;20433;-71
2023/08/09 06:59:30;;;;;;;1999.90;999.90;;;17.10;99.90;;;;;;4965666;28;20524;-71
2023/08/09 07:01:56;;;;;;;1999.90;999.90;;;17.20;99.90;;;;;;4974273;28;20420;-71
2023/08/09 07:04:23;;;;;;;1999.90;999.90;;;17.00;99.90;;;;;;4972073;28;20443;-71
2023/08/09 07:06:50;;;;;;;1999.90;999.90;;;17.20;99.90;;;;;;4974359;28;20420;-71
2023/08/09 07:09:18;;;;;;;1999.90;999.90;;;17.40;99.90;;;;;;4974209;28;20448;-70
2023/08/09 07:11:46;;;;;;;1999.90;999.90;;;17.40;99.90;;;;;;4973624;28;20435;-71
2023/08/09 07:14:13;;;;;;;1999.90;999.90;;;17.40;99.90;;;;;;4974163;28;20450;-71
2023/08/09 07:16:40;;;;;;;1999.90;999.90;;;17.50;99.90;;;;;;4974569;28;20420;-71
2023/08/09 07:19:06;;;;;;;1999.90;999.90;;;17.60;99.90;;;;;;4973976;28;20419;-70
2023/08/09 07:21:33;;;;;;;1999.90;999.90;;;17.80;99.90;;;;;;4971980;28;20440;-70
2023/08/09 07:24:00;;;;;;;1999.90;999.90;;;17.70;99.90;;;;;;4973742;28;20428;-71
2023/08/09 07:26:28;;;;;;;1999.90;999.90;;;17.40;99.90;;;;;;4973999;28;20416;-72
2023/08/09 07:28:55;;;;;;;1999.90;999.90;;;17.50;99.90;;;;;;4973954;28;20412;-69
2023/08/09 07:31:23;;;;;;;1999.90;999.90;;;17.60;99.90;;;;;;4971950;28;20446;-69
2023/08/09 07:33:51;;;;;;;1999.90;999.90;;;17.80;99.90;;;;;;4968291;28;20420;-69
2023/08/09 07:36:18;;;;;;;1999.90;999.90;;;18.00;99.90;;;;;;4973897;28;20420;-69
2023/08/09 07:38:45;;;;;;;1999.90;999.90;;;18.00;99.90;;;;;;4974443;28;20436;-69
2023/08/09 07:41:11;;;;;;;1999.90;999.90;;;17.70;99.90;;;;;;4973322;28;20432;-69
2023/08/09 07:43:39;;;;;;;1999.90;999.90;;;17.80;99.90;;;;;;4973572;28;20420;-71
2023/08/09 07:46:06;;;;;;;1999.90;999.90;;;18.10;99.90;;;;;;4973405;28;20424;-71
2023/08/09 07:48:34;;;;;;;1999.90;999.90;;;18.00;99.90;;;;;;4973523;28;20463;-71
2023/08/09 07:51:00;;;;;;;1999.90;999.90;;;18.10;99.90;;;;;;4972457;28;20419;-72
2023/08/09 07:53:27;;;;;;;1999.90;999.90;;;18.60;99.90;;;;;;4972551;28;20476;-71
2023/08/09 07:55:54;;;;;;;1999.90;999.90;;;18.50;99.90;;;;;;4973408;28;20419;-72
2023/08/09 07:58:21;;;;;;;1999.90;999.90;;;18.20;99.90;;;;;;4973305;28;20436;-72
2023/08/09 08:00:49;;;;;;;1999.90;999.90;;;18.40;99.90;;;;;;4972689;28;20897;-72
2023/08/09 08:03:16;;;;;;;1999.90;999.90;;;18.70;99.90;;;;;;4971544;28;20950;-70
2023/08/09 08:05:43;;;;;;;1999.90;999.90;;;18.40;99.90;;;;;;4973376;28;20420;-70
2023/08/09 08:08:09;;;;;;;1999.90;999.90;;;18.40;99.90;;;;;;4973185;28;20434;-71
2023/08/09 08:10:37;;;;;;;1999.90;999.90;;;18.40;99.90;;;;;;4973194;28;20439;-69
2023/08/09 08:13:04;;;;;;;1999.90;999.90;;;18.50;99.90;;;;;;4972288;28;20867;-70
2023/08/09 08:15:30;;;;;;;1999.90;999.90;;;18.50;99.90;;;;;;4972862;28;20482;-70
2023/08/09 08:17:58;;;;;;;1999.90;999.90;;;18.60;99.90;;;;;;4973118;28;20432;-70
2023/08/09 08:20:25;;;;;;;1999.90;999.90;;;18.90;99.90;;;;;;4973297;28;20796;-71
2023/08/09 08:22:52;;;;;;;1999.90;999.90;;;19.10;99.90;;;;;;4972818;28;20443;-70
2023/08/09 08:25:20;;;;;;;1999.90;999.90;;;19.00;99.90;;;;;;4972927;28;20800;-70
2023/08/09 08:27:47;;;;;;;1999.90;999.90;;;18.90;99.90;;;;;;4973182;28;20416;-70
2023/08/09 08:30:16;;;;;;;1999.90;999.90;;;18.70;99.90;;;;;;4969207;28;20436;-71
2023/08/09 08:32:43;;;;;;;1999.90;999.90;;;18.90;99.90;;;;;;4965476;28;20462;-70
2023/08/09 08:35:13;;;;;;;1999.90;999.90;;;19.40;99.90;;;;;;4973136;28;20900;-70
2023/08/09 08:37:40;;;;;;;1999.90;999.90;;;19.50;99.90;;;;;;4973090;28;20436;-70
2023/08/09 08:40:09;;;;;;;1999.90;999.90;;;19.30;99.90;;;;;;4970371;28;20447;-70
2023/08/09 08:42:36;;;;;;;1999.90;999.90;;;19.20;99.90;;;;;;4972693;28;20924;-70
2023/08/09 08:45:09;;;;;;;1999.90;999.90;;;19.40;99.90;;;;;;4972873;28;20420;-70
2023/08/09 08:47:38;;;;;;;1999.90;999.90;;;19.60;99.90;;;;;;4973043;28;20412;-70
2023/08/09 08:50:06;;;;;;;1999.90;999.90;;;19.60;99.90;;;;;;4971655;28;20496;-71
2023/08/09 08:52:36;;;;;;;1999.90;999.90;;;19.70;99.90;;;;;;4972834;28;20506;-70
2023/08/09 08:55:04;;;;;;;1999.90;999.90;;;19.30;99.90;;;;;;4972820;28;20419;-70
2023/08/09 08:57:33;;;;;;;1999.90;999.90;;;19.00;99.90;;;;;;4967624;28;20446;-70
2023/08/09 09:00:03;;;;;;;1999.90;999.90;;;19.10;99.90;;;;;;4972543;28;20454;-70
2023/08/09 09:02:30;;;;;;;1999.90;999.90;;;19.10;99.90;;;;;;4972999;28;20448;-70
2023/08/09 09:04:56;;;;;;;1999.90;999.90;;;18.90;99.90;;;;;;4972859;28;20446;-70
2023/08/09 09:07:23;;;;;;;1999.90;999.90;;;18.90;99.90;;;;;;4961563;28;20437;-71
2023/08/09 09:10:03;;;;;;;1999.90;999.90;;;19.30;99.90;;;;;;4963748;28;20465;-72
2023/08/09 09:12:30;;;;;;;1999.90;999.90;;;20.00;99.90;;;;;;4977457;28;20447;-70
2023/08/09 09:14:57;;;;;;;1999.90;999.90;;;20.10;99.90;;;;;;4982392;28;20449;-70
2023/08/09 09:17:23;;;;;;;1999.90;999.90;;;19.90;99.90;;;;;;4969850;28;20932;-70
2023/08/09 09:19:51;;;;;;;1999.90;999.90;;;20.20;99.90;;;;;;4974065;28;20449;-71
2023/08/09 09:22:27;;;;;;;1999.90;999.90;;;20.60;99.90;;;;;;4975793;28;20431;-71
2023/08/09 09:24:58;;;;;;;1999.90;999.90;;;20.90;99.90;;;;;;4972286;28;20444;-70
2023/08/09 09:27:30;;;;;;;1999.90;999.90;;;20.80;99.90;;;;;;4971110;28;20477;-70
2023/08/09 09:30:02;;;;;;;1999.90;999.90;;;20.50;99.90;;;;;;4972397;28;20506;-70
2023/08/09 09:32:30;;;;;;;1999.90;999.90;;;19.90;99.90;;;;;;4972313;28;20419;-70
2023/08/09 09:34:57;;;;;;;1999.90;999.90;;;20.00;99.90;;;;;;4971972;28;20416;-70
2023/08/09 09:37:25;;;;;;;1999.90;999.90;;;20.30;99.90;;;;;;4971366;28;20436;-71
2023/08/09 09:39:52;;;;;;;1999.90;999.90;;;20.10;99.90;;;;;;4971988;28;20428;-71
2023/08/09 09:42:32;;;;;;;1999.90;999.90;;;20.20;99.90;;;;;;4971708;28;20448;-71
2023/08/09 09:45:07;;;;;;;1999.90;999.90;;;20.60;99.90;;;;;;4971989;28;20416;-71
2023/08/09 09:47:34;;;;;;;1999.90;999.90;;;20.90;99.90;;;;;;4971385;28;20920;-71
2023/08/09 09:50:05;;;;;;;1999.90;999.90;;;21.10;99.80;;;;;;4970440;28;20440;-71
2023/08/09 09:52:32;;;;;;;1999.90;999.90;;;21.10;99.50;;;;;;4971061;28;20463;-71
2023/08/09 09:55:00;;;;;;;1999.90;999.90;;;20.70;99.90;;;;;;4972055;28;20412;-71
2023/08/09 09:57:27;;;;;;;1999.90;999.90;;;20.40;99.90;;;;;;4970910;28;20436;-70
2023/08/09 09:59:59;;;;;;;1999.90;999.90;;;20.60;99.90;;;;;;4971350;28;20451;-71
2023/08/09 10:02:32;;;;;;;1999.90;999.90;;;21.10;99.90;;;;;;4971453;28;20507;-70
2023/08/09 10:05:00;;;;;;;1999.90;999.90;;;21.20;99.90;;;;;;4971949;28;20431;-71
2023/08/09 10:07:30;;;;;;;1999.90;999.90;;;21.80;98.70;;;;;;4963148;28;20452;-71
2023/08/09 10:09:59;;;;;;;1999.90;999.90;;;21.80;98.50;;;;;;4971339;28;21005;-71
2023/08/09 10:12:25;;;;;;;1999.90;999.90;;;21.60;97.60;;;;;;4971443;28;20423;-71
2023/08/09 10:14:54;;;;;;;1999.90;999.90;;;21.80;97.10;;;;;;4971843;28;20443;-70
2023/08/09 10:17:24;;;;;;;1999.90;999.90;;;22.00;97.60;;;;;;4963845;28;20445;-71
2023/08/09 10:19:53;;;;;;;1999.90;999.90;;;22.10;96.80;;;;;;4963740;28;20419;-71
2023/08/09 10:22:20;;;;;;;1999.90;999.90;;;22.00;97.30;;;;;;4971473;28;20925;-71
2023/08/09 10:24:51;;;;;;;1999.90;999.90;;;21.20;96.60;;;;;;4973705;28;20442;-71
2023/08/09 10:27:49;;;;;;;1999.90;999.90;;;20.90;98.90;;;;;;4972062;28;20527;-67
2023/08/09 10:30:17;;;;;;;1999.90;999.90;;;20.70;99.40;;;;;;4970431;28;20423;-70
2023/08/09 10:32:53;;;;;;;1999.90;999.90;;;20.50;99.90;;;;;;4975311;28;20451;-70
2023/08/09 10:35:22;;;;;;;1999.90;999.90;;;20.90;99.90;;;;;;4972591;28;20451;-71
2023/08/09 10:37:48;;;;;;;1999.90;999.90;;;21.50;99.90;;;;;;4975006;28;20933;-68
2023/08/09 10:40:18;;;;;;;1999.90;999.90;;;21.80;99.40;;;;;;4975048;28;20490;-71
2023/08/09 10:42:46;;;;;;;1999.90;999.90;;;21.70;97.30;;;;;;4974834;28;20507;-72
2023/08/09 10:45:14;;;;;;;1999.90;999.90;;;21.30;97.40;;;;;;4974394;28;20435;-71
2023/08/09 10:47:41;;;;;;;1999.90;999.90;;;21.20;97.30;;;;;;4974955;28;20417;-70
2023/08/09 10:50:10;;;;;;;1999.90;999.90;;;21.30;96.90;;;;;;4974818;28;20896;-71
2023/08/09 10:52:40;;;;;;;1999.90;999.90;;;21.30;97.30;;;;;;4975295;28;20507;-71
2023/08/09 10:55:31;;;;;;;1999.90;999.90;;;21.40;98.50;;;;;;4973927;28;20443;-70
2023/08/09 10:58:01;;;;;;;1999.90;999.90;;;21.70;97.00;;;;;;4967221;28;20444;-70
2023/08/09 11:00:36;;;;;;;1999.90;999.90;;;22.00;96.20;;;;;;4974666;28;20519;-71
2023/08/09 11:03:04;;;;;;;1999.90;999.90;;;22.00;96.80;;;;;;4974870;28;20419;-70
2023/08/09 11:05:32;;;;;;;1999.90;999.90;;;22.10;96.00;;;;;;4973724;28;20879;-71
2023/08/09 11:08:00;;;;;;;1999.90;999.90;;;21.70;95.90;;;;;;4974703;28;20424;-71
2023/08/09 11:10:31;;;;;;;1999.90;999.90;;;21.70;96.20;;;;;;4974382;28;20452;-71
2023/08/09 11:13:02;;;;;;;1999.90;999.90;;;21.70;95.80;;;;;;4974535;28;20923;-70
2023/08/09 11:15:29;;;;;;;1999.90;999.90;;;21.90;97.70;;;;;;4973488;28;20471;-71
2023/08/09 11:17:56;;;;;;;1999.90;999.90;;;22.10;96.40;;;;;;4966514;28;20420;-71
2023/08/09 11:20:22;;;;;;;1999.90;999.90;;;22.40;96.00;;;;;;4974178;28;20416;-71
2023/08/09 11:22:55;;;;;;;1999.90;999.90;;;22.80;94.90;;;;;;4974143;28;20427;-71
2023/08/09 11:25:22;;;;;;;1999.90;999.90;;;23.10;93.50;;;;;;4973173;28;20551;-71
2023/08/09 11:27:51;;;;;;;1999.90;999.90;;;23.20;93.80;;;;;;4974113;28;20420;-71
2023/08/09 11:30:18;;;;;;;1999.90;999.90;;;23.40;92.90;;;;;;4973823;28;20769;-69
2023/08/09 11:32:45;;;;;;;1999.90;999.90;;;23.50;92.60;;;;;;4974091;28;20847;-71
2023/08/09 11:35:12;;;;;;;1999.90;999.90;;;23.50;92.40;;;;;;4970974;28;20446;-72
2023/08/09 11:37:39;;;;;;;1999.90;999.90;;;23.50;93.80;;;;;;4974002;28;20423;-68
2023/08/09 11:40:09;;;;;;;1999.90;999.90;;;23.80;93.40;;;;;;4973345;28;20464;-70
2023/08/09 11:42:36;;;;;;;1999.90;999.90;;;23.70;92.20;;;;;;4974361;28;20479;-71
2023/08/09 11:45:04;;;;;;;1999.90;999.90;;;23.00;91.70;;;;;;4970260;28;20455;-71
2023/08/09 11:47:31;;;;;;;1999.90;999.90;;;23.00;92.50;;;;;;4970883;28;20444;-71
2023/08/09 11:49:58;;;;;;;1999.90;999.90;;;22.70;93.20;;;;;;4971771;28;20436;-71
2023/08/09 11:52:25;;;;;;;1999.90;999.90;;;22.60;94.20;;;;;;4974093;28;20824;-72
2023/08/09 11:54:51;;;;;;;1999.90;999.90;;;22.70;94.10;;;;;;4972209;28;20439;-70
2023/08/09 11:57:20;;;;;;;1999.90;999.90;;;22.20;92.20;;;;;;4969208;28;20447;-71
2023/08/09 11:59:47;;;;;;;1999.90;999.90;;;22.40;92.70;;;;;;4970847;28;20797;-70
2023/08/09 12:02:14;;;;;;;1999.90;999.90;;;22.60;93.10;;;;;;4975309;28;20453;-71